sensor_id;sensor_type;location;lat;lon;timestamp;P1;durP1;ratioP1;P2;durP2;ratioP2
11986;SDS011;6053;51.382;6.768;2022-11-15T00:01:14;1.90;;;1.80;;
11986;SDS011;6053;51.382;6.768;2022-11-15T00:03:50;0.95;;;0.95;;
11986;SDS011;6053;51.382;6.768;2022-11-15T00:06:18;2.42;;;1.85;;
11986;SDS011;6053;51.382;6.768;2022-11-15T00:08:47;1.92;;;1.63;;
11986;SDS011;6053;51.382;6.768;2022-11-15T00:11:15;3.00;;;2.80;;
11986;SDS011;6053;51.382;6.768;2022-11-15T00:13:44;2.72;;;2.53;;
11986;SDS011;6053;51.382;6.768;2022-11-15T00:16:12;2.60;;;1.80;;
11986;SDS011;6053;51.382;6.768;2022-11-15T00:18:40;1.80;;;1.70;;
11986;SDS011;6053;51.382;6.768;2022-11-15T00:21:17;2.53;;;1.70;;
11986;SDS011;6053;51.382;6.768;2022-11-15T00:23:45;1.75;;;1.75;;
11986;SDS011;6053;51.382;6.768;2022-11-15T00:26:14;1.45;;;1.35;;
11986;SDS011;6053;51.382;6.768;2022-11-15T00:28:42;1.90;;;1.80;;
11986;SDS011;6053;51.382;6.768;2022-11-15T00:31:11;1.90;;;1.80;;
11986;SDS011;6053;51.382;6.768;2022-11-15T00:33:42;1.67;;;1.58;;
11986;SDS011;6053;51.382;6.768;2022-11-15T00:36:12;2.65;;;2.45;;
11986;SDS011;6053;51.382;6.768;2022-11-15T00:38:42;1.75;;;1.65;;
11986;SDS011;6053;51.382;6.768;2022-11-15T00:41:10;2.58;;;2.38;;
11986;SDS011;6053;51.382;6.768;2022-11-15T00:43:38;1.20;;;1.20;;
11986;SDS011;6053;51.382;6.768;2022-11-15T00:46:09;2.50;;;2.30;;
11986;SDS011;6053;51.382;6.768;2022-11-15T00:48:38;2.30;;;2.10;;
11986;SDS011;6053;51.382;6.768;2022-11-15T00:51:06;4.05;;;2.40;;
11986;SDS011;6053;51.382;6.768;2022-11-15T00:53:34;2.43;;;2.33;;
11986;SDS011;6053;51.382;6.768;2022-11-15T00:56:04;3.55;;;2.45;;
11986;SDS011;6053;51.382;6.768;2022-11-15T00:58:33;3.03;;;2.60;;
11986;SDS011;6053;51.382;6.768;2022-11-15T01:01:05;3.00;;;2.30;;
11986;SDS011;6053;51.382;6.768;2022-11-15T01:03:35;2.90;;;2.60;;
11986;SDS011;6053;51.382;6.768;2022-11-15T01:06:05;3.28;;;2.63;;
11986;SDS011;6053;51.382;6.768;2022-11-15T01:08:35;2.60;;;2.33;;
11986;SDS011;6053;51.382;6.768;2022-11-15T01:11:06;2.60;;;2.38;;
11986;SDS011;6053;51.382;6.768;2022-11-15T01:13:36;3.25;;;2.60;;
11986;SDS011;6053;51.382;6.768;2022-11-15T01:16:06;2.40;;;2.20;;
11986;SDS011;6053;51.382;6.768;2022-11-15T01:18:37;4.05;;;2.50;;
11986;SDS011;6053;51.382;6.768;2022-11-15T01:21:07;2.72;;;2.53;;
11986;SDS011;6053;51.382;6.768;2022-11-15T01:23:37;1.33;;;1.33;;
11986;SDS011;6053;51.382;6.768;2022-11-15T01:26:09;2.35;;;2.15;;
11986;SDS011;6053;51.382;6.768;2022-11-15T01:28:40;2.70;;;2.50;;
11986;SDS011;6053;51.382;6.768;2022-11-15T01:31:10;2.77;;;2.50;;
11986;SDS011;6053;51.382;6.768;2022-11-15T01:33:42;4.18;;;2.67;;
11986;SDS011;6053;51.382;6.768;2022-11-15T01:36:11;3.00;;;2.28;;
11986;SDS011;6053;51.382;6.768;2022-11-15T01:38:42;3.20;;;2.38;;
11986;SDS011;6053;51.382;6.768;2022-11-15T01:41:16;2.65;;;2.00;;
11986;SDS011;6053;51.382;6.768;2022-11-15T01:43:46;4.03;;;2.55;;
11986;SDS011;6053;51.382;6.768;2022-11-15T01:46:22;3.00;;;2.70;;
11986;SDS011;6053;51.382;6.768;2022-11-15T01:48:56;2.00;;;1.90;;
11986;SDS011;6053;51.382;6.768;2022-11-15T01:51:30;1.30;;;1.30;;
11986;SDS011;6053;51.382;6.768;2022-11-15T01:54:01;2.55;;;2.35;;
11986;SDS011;6053;51.382;6.768;2022-11-15T01:56:37;3.17;;;2.28;;
11986;SDS011;6053;51.382;6.768;2022-11-15T01:59:10;2.40;;;2.00;;
11986;SDS011;6053;51.382;6.768;2022-11-15T02:01:39;2.72;;;2.30;;
11986;SDS011;6053;51.382;6.768;2022-11-15T02:04:09;2.28;;;2.17;;
11986;SDS011;6053;51.382;6.768;2022-11-15T02:06:43;1.93;;;1.83;;
11986;SDS011;6053;51.382;6.768;2022-11-15T02:09:12;3.03;;;2.33;;
11986;SDS011;6053;51.382;6.768;2022-11-15T02:11:42;2.60;;;2.40;;
11986;SDS011;6053;51.382;6.768;2022-11-15T02:14:12;1.90;;;1.70;;
11986;SDS011;6053;51.382;6.768;2022-11-15T02:16:44;2.50;;;2.30;;
11986;SDS011;6053;51.382;6.768;2022-11-15T02:19:28;2.23;;;2.03;;
11986;SDS011;6053;51.382;6.768;2022-11-15T02:22:23;2.00;;;1.88;;
11986;SDS011;6053;51.382;6.768;2022-11-15T02:25:09;2.70;;;1.65;;
11986;SDS011;6053;51.382;6.768;2022-11-15T02:28:13;2.60;;;2.40;;
11986;SDS011;6053;51.382;6.768;2022-11-15T02:31:09;3.83;;;2.20;;
11986;SDS011;6053;51.382;6.768;2022-11-15T02:33:47;2.42;;;1.95;;
11986;SDS011;6053;51.382;6.768;2022-11-15T02:36:27;2.20;;;1.70;;
11986;SDS011;6053;51.382;6.768;2022-11-15T02:39:07;4.03;;;2.38;;
11986;SDS011;6053;51.382;6.768;2022-11-15T02:41:45;2.47;;;2.17;;
11986;SDS011;6053;51.382;6.768;2022-11-15T02:44:18;2.53;;;2.33;;
11986;SDS011;6053;51.382;6.768;2022-11-15T02:46:54;2.03;;;1.93;;
11986;SDS011;6053;51.382;6.768;2022-11-15T02:49:45;3.22;;;2.25;;
11986;SDS011;6053;51.382;6.768;2022-11-15T02:52:17;3.03;;;1.67;;
11986;SDS011;6053;51.382;6.768;2022-11-15T02:54:52;2.70;;;2.20;;
11986;SDS011;6053;51.382;6.768;2022-11-15T02:57:31;2.20;;;2.10;;
11986;SDS011;6053;51.382;6.768;2022-11-15T03:00:11;1.73;;;1.63;;
11986;SDS011;6053;51.382;6.768;2022-11-15T03:02:46;2.10;;;1.90;;
11986;SDS011;6053;51.382;6.768;2022-11-15T03:05:34;1.95;;;1.85;;
11986;SDS011;6053;51.382;6.768;2022-11-15T03:08:10;0.90;;;0.90;;
11986;SDS011;6053;51.382;6.768;2022-11-15T03:10:46;2.90;;;2.20;;
11986;SDS011;6053;51.382;6.768;2022-11-15T03:13:27;4.00;;;2.60;;
11986;SDS011;6053;51.382;6.768;2022-11-15T03:16:02;2.50;;;2.30;;
11986;SDS011;6053;51.382;6.768;2022-11-15T03:18:38;5.07;;;2.60;;
11986;SDS011;6053;51.382;6.768;2022-11-15T03:21:11;2.38;;;2.15;;
11986;SDS011;6053;51.382;6.768;2022-11-15T03:23:41;2.60;;;2.40;;
11986;SDS011;6053;51.382;6.768;2022-11-15T03:26:12;3.15;;;2.50;;
11986;SDS011;6053;51.382;6.768;2022-11-15T03:28:44;2.67;;;2.47;;
11986;SDS011;6053;51.382;6.768;2022-11-15T03:31:17;3.35;;;2.30;;
11986;SDS011;6053;51.382;6.768;2022-11-15T03:34:14;2.05;;;1.95;;
11986;SDS011;6053;51.382;6.768;2022-11-15T03:36:53;2.60;;;2.40;;
11986;SDS011;6053;51.382;6.768;2022-11-15T03:39:22;2.33;;;2.13;;
11986;SDS011;6053;51.382;6.768;2022-11-15T03:41:55;2.65;;;2.25;;
11986;SDS011;6053;51.382;6.768;2022-11-15T03:44:36;2.72;;;2.22;;
11986;SDS011;6053;51.382;6.768;2022-11-15T03:47:13;1.75;;;1.65;;
11986;SDS011;6053;51.382;6.768;2022-11-15T03:49:50;2.00;;;1.80;;
11986;SDS011;6053;51.382;6.768;2022-11-15T03:52:30;2.38;;;1.63;;
11986;SDS011;6053;51.382;6.768;2022-11-15T03:55:01;3.58;;;2.33;;
11986;SDS011;6053;51.382;6.768;2022-11-15T03:57:33;2.40;;;2.20;;
11986;SDS011;6053;51.382;6.768;2022-11-15T04:00:01;2.53;;;2.30;;
11986;SDS011;6053;51.382;6.768;2022-11-15T04:02:30;2.15;;;2.00;;
11986;SDS011;6053;51.382;6.768;2022-11-15T04:05:00;2.28;;;2.17;;
11986;SDS011;6053;51.382;6.768;2022-11-15T04:07:28;2.33;;;2.13;;
11986;SDS011;6053;51.382;6.768;2022-11-15T04:09:57;2.15;;;1.85;;
11986;SDS011;6053;51.382;6.768;2022-11-15T04:12:32;1.65;;;1.55;;
11986;SDS011;6053;51.382;6.768;2022-11-15T04:15:03;2.42;;;2.17;;
11986;SDS011;6053;51.382;6.768;2022-11-15T04:17:37;2.42;;;1.75;;
11986;SDS011;6053;51.382;6.768;2022-11-15T04:20:10;1.20;;;1.20;;
11986;SDS011;6053;51.382;6.768;2022-11-15T04:23:00;1.30;;;1.30;;
11986;SDS011;6053;51.382;6.768;2022-11-15T04:25:49;1.30;;;1.30;;
11986;SDS011;6053;51.382;6.768;2022-11-15T04:28:20;2.00;;;1.90;;
11986;SDS011;6053;51.382;6.768;2022-11-15T04:30:49;2.13;;;1.80;;
11986;SDS011;6053;51.382;6.768;2022-11-15T04:33:17;2.20;;;2.10;;
11986;SDS011;6053;51.382;6.768;2022-11-15T04:35:47;2.10;;;2.00;;
11986;SDS011;6053;51.382;6.768;2022-11-15T04:38:29;1.90;;;1.80;;
11986;SDS011;6053;51.382;6.768;2022-11-15T04:40:58;1.55;;;1.45;;
11986;SDS011;6053;51.382;6.768;2022-11-15T04:43:26;1.80;;;1.70;;
11986;SDS011;6053;51.382;6.768;2022-11-15T04:45:55;2.20;;;2.00;;
11986;SDS011;6053;51.382;6.768;2022-11-15T04:48:23;2.67;;;2.08;;
11986;SDS011;6053;51.382;6.768;2022-11-15T04:50:53;1.90;;;1.80;;
11986;SDS011;6053;51.382;6.768;2022-11-15T04:53:21;1.80;;;1.70;;
11986;SDS011;6053;51.382;6.768;2022-11-15T04:55:49;1.93;;;1.83;;
11986;SDS011;6053;51.382;6.768;2022-11-15T04:58:18;1.95;;;1.77;;
11986;SDS011;6053;51.382;6.768;2022-11-15T05:00:46;2.20;;;1.77;;
11986;SDS011;6053;51.382;6.768;2022-11-15T05:03:14;2.92;;;2.00;;
11986;SDS011;6053;51.382;6.768;2022-11-15T05:06:02;1.90;;;1.80;;
11986;SDS011;6053;51.382;6.768;2022-11-15T05:08:30;1.40;;;1.30;;
11986;SDS011;6053;51.382;6.768;2022-11-15T05:10:58;2.05;;;1.95;;
11986;SDS011;6053;51.382;6.768;2022-11-15T05:13:27;1.20;;;1.20;;
11986;SDS011;6053;51.382;6.768;2022-11-15T05:15:55;2.30;;;1.80;;
11986;SDS011;6053;51.382;6.768;2022-11-15T05:18:24;2.08;;;1.90;;
11986;SDS011;6053;51.382;6.768;2022-11-15T05:20:52;1.80;;;1.70;;
11986;SDS011;6053;51.382;6.768;2022-11-15T05:23:21;1.50;;;1.40;;
11986;SDS011;6053;51.382;6.768;2022-11-15T05:25:50;1.90;;;1.80;;
11986;SDS011;6053;51.382;6.768;2022-11-15T05:28:18;1.80;;;1.70;;
11986;SDS011;6053;51.382;6.768;2022-11-15T05:30:46;1.55;;;1.50;;
11986;SDS011;6053;51.382;6.768;2022-11-15T05:33:14;1.87;;;1.60;;
11986;SDS011;6053;51.382;6.768;2022-11-15T05:35:45;1.35;;;1.35;;
11986;SDS011;6053;51.382;6.768;2022-11-15T05:38:23;1.90;;;1.80;;
11986;SDS011;6053;51.382;6.768;2022-11-15T05:40:51;2.23;;;2.03;;
11986;SDS011;6053;51.382;6.768;2022-11-15T05:43:19;1.67;;;1.58;;
11986;SDS011;6053;51.382;6.768;2022-11-15T05:45:48;2.35;;;1.52;;
11986;SDS011;6053;51.382;6.768;2022-11-15T05:48:17;1.98;;;1.88;;
11986;SDS011;6053;51.382;6.768;2022-11-15T05:50:46;1.90;;;1.80;;
11986;SDS011;6053;51.382;6.768;2022-11-15T05:53:16;2.20;;;2.00;;
11986;SDS011;6053;51.382;6.768;2022-11-15T05:55:50;1.20;;;1.20;;
11986;SDS011;6053;51.382;6.768;2022-11-15T05:58:18;1.97;;;1.87;;
11986;SDS011;6053;51.382;6.768;2022-11-15T06:00:47;1.58;;;1.52;;
11986;SDS011;6053;51.382;6.768;2022-11-15T06:03:15;1.83;;;1.65;;
11986;SDS011;6053;51.382;6.768;2022-11-15T06:05:44;2.53;;;1.98;;
11986;SDS011;6053;51.382;6.768;2022-11-15T06:08:12;2.33;;;1.90;;
11986;SDS011;6053;51.382;6.768;2022-11-15T06:10:40;1.75;;;1.75;;
11986;SDS011;6053;51.382;6.768;2022-11-15T06:13:10;1.80;;;1.70;;
11986;SDS011;6053;51.382;6.768;2022-11-15T06:15:38;2.63;;;1.90;;
11986;SDS011;6053;51.382;6.768;2022-11-15T06:18:06;2.03;;;1.90;;
11986;SDS011;6053;51.382;6.768;2022-11-15T06:20:34;2.13;;;1.92;;
11986;SDS011;6053;51.382;6.768;2022-11-15T06:23:03;1.80;;;1.70;;
11986;SDS011;6053;51.382;6.768;2022-11-15T06:25:32;1.58;;;1.48;;
11986;SDS011;6053;51.382;6.768;2022-11-15T06:28:00;2.25;;;2.15;;
11986;SDS011;6053;51.382;6.768;2022-11-15T06:30:30;2.03;;;1.57;;
11986;SDS011;6053;51.382;6.768;2022-11-15T06:32:59;1.27;;;1.27;;
11986;SDS011;6053;51.382;6.768;2022-11-15T06:35:28;1.83;;;1.73;;
11986;SDS011;6053;51.382;6.768;2022-11-15T06:38:01;1.83;;;1.73;;
11986;SDS011;6053;51.382;6.768;2022-11-15T06:40:32;1.80;;;1.70;;
11986;SDS011;6053;51.382;6.768;2022-11-15T06:43:02;1.83;;;1.73;;
11986;SDS011;6053;51.382;6.768;2022-11-15T06:45:32;1.40;;;1.30;;
11986;SDS011;6053;51.382;6.768;2022-11-15T06:48:01;2.00;;;1.90;;
11986;SDS011;6053;51.382;6.768;2022-11-15T06:50:29;1.15;;;1.15;;
11986;SDS011;6053;51.382;6.768;2022-11-15T06:53:00;2.95;;;1.85;;
11986;SDS011;6053;51.382;6.768;2022-11-15T06:55:29;0.80;;;0.80;;
11986;SDS011;6053;51.382;6.768;2022-11-15T06:57:58;1.90;;;1.80;;
11986;SDS011;6053;51.382;6.768;2022-11-15T07:00:26;1.33;;;1.33;;
11986;SDS011;6053;51.382;6.768;2022-11-15T07:02:56;2.58;;;1.80;;
11986;SDS011;6053;51.382;6.768;2022-11-15T07:05:27;1.63;;;1.52;;
11986;SDS011;6053;51.382;6.768;2022-11-15T07:07:56;1.98;;;1.80;;
11986;SDS011;6053;51.382;6.768;2022-11-15T07:10:25;1.60;;;1.50;;
11986;SDS011;6053;51.382;6.768;2022-11-15T07:12:55;1.80;;;1.70;;
11986;SDS011;6053;51.382;6.768;2022-11-15T07:15:24;1.60;;;1.50;;
11986;SDS011;6053;51.382;6.768;2022-11-15T07:17:53;1.50;;;1.40;;
11986;SDS011;6053;51.382;6.768;2022-11-15T07:20:22;1.38;;;1.38;;
11986;SDS011;6053;51.382;6.768;2022-11-15T07:22:50;1.80;;;1.70;;
11986;SDS011;6053;51.382;6.768;2022-11-15T07:25:26;2.88;;;1.80;;
11986;SDS011;6053;51.382;6.768;2022-11-15T07:27:55;1.98;;;1.70;;
11986;SDS011;6053;51.382;6.768;2022-11-15T07:30:24;1.52;;;1.50;;
11986;SDS011;6053;51.382;6.768;2022-11-15T07:32:54;2.30;;;1.40;;
11986;SDS011;6053;51.382;6.768;2022-11-15T07:35:25;1.70;;;1.60;;
11986;SDS011;6053;51.382;6.768;2022-11-15T07:37:56;1.60;;;1.52;;
11986;SDS011;6053;51.382;6.768;2022-11-15T07:40:25;1.73;;;1.50;;
11986;SDS011;6053;51.382;6.768;2022-11-15T07:42:58;1.85;;;1.67;;
11986;SDS011;6053;51.382;6.768;2022-11-15T07:45:27;1.52;;;1.42;;
11986;SDS011;6053;51.382;6.768;2022-11-15T07:47:56;1.67;;;1.58;;
11986;SDS011;6053;51.382;6.768;2022-11-15T07:50:25;1.00;;;1.00;;
11986;SDS011;6053;51.382;6.768;2022-11-15T07:52:55;2.00;;;1.40;;
11986;SDS011;6053;51.382;6.768;2022-11-15T07:55:26;1.30;;;1.20;;
11986;SDS011;6053;51.382;6.768;2022-11-15T07:57:59;0.80;;;0.80;;
11986;SDS011;6053;51.382;6.768;2022-11-15T08:00:30;1.80;;;0.77;;
11986;SDS011;6053;51.382;6.768;2022-11-15T08:03:02;0.70;;;0.70;;
11986;SDS011;6053;51.382;6.768;2022-11-15T08:05:33;0.80;;;0.80;;
11986;SDS011;6053;51.382;6.768;2022-11-15T08:08:02;1.17;;;0.73;;
11986;SDS011;6053;51.382;6.768;2022-11-15T08:10:31;0.80;;;0.80;;
11986;SDS011;6053;51.382;6.768;2022-11-15T08:13:06;0.60;;;0.60;;
11986;SDS011;6053;51.382;6.768;2022-11-15T08:15:36;0.80;;;0.70;;
11986;SDS011;6053;51.382;6.768;2022-11-15T08:18:06;0.60;;;0.60;;
11986;SDS011;6053;51.382;6.768;2022-11-15T08:20:39;0.50;;;0.50;;
11986;SDS011;6053;51.382;6.768;2022-11-15T08:23:09;0.80;;;0.80;;
11986;SDS011;6053;51.382;6.768;2022-11-15T08:25:39;0.70;;;0.63;;
11986;SDS011;6053;51.382;6.768;2022-11-15T08:28:10;0.70;;;0.70;;
11986;SDS011;6053;51.382;6.768;2022-11-15T08:30:39;0.70;;;0.70;;
11986;SDS011;6053;51.382;6.768;2022-11-15T08:33:10;0.60;;;0.60;;
11986;SDS011;6053;51.382;6.768;2022-11-15T08:35:41;0.60;;;0.60;;
11986;SDS011;6053;51.382;6.768;2022-11-15T08:38:10;0.70;;;0.70;;
11986;SDS011;6053;51.382;6.768;2022-11-15T08:40:39;1.20;;;0.50;;
11986;SDS011;6053;51.382;6.768;2022-11-15T08:43:07;0.60;;;0.60;;
11986;SDS011;6053;51.382;6.768;2022-11-15T08:45:35;0.70;;;0.70;;
11986;SDS011;6053;51.382;6.768;2022-11-15T08:48:04;0.70;;;0.70;;
11986;SDS011;6053;51.382;6.768;2022-11-15T08:50:32;0.73;;;0.73;;
11986;SDS011;6053;51.382;6.768;2022-11-15T08:53:05;0.60;;;0.60;;
11986;SDS011;6053;51.382;6.768;2022-11-15T08:55:35;1.05;;;1.00;;
11986;SDS011;6053;51.382;6.768;2022-11-15T08:58:05;0.80;;;0.80;;
11986;SDS011;6053;51.382;6.768;2022-11-15T09:00:33;1.23;;;0.90;;
11986;SDS011;6053;51.382;6.768;2022-11-15T09:03:03;0.90;;;0.90;;
11986;SDS011;6053;51.382;6.768;2022-11-15T09:05:32;1.33;;;1.05;;
11986;SDS011;6053;51.382;6.768;2022-11-15T09:08:03;0.60;;;0.60;;
11986;SDS011;6053;51.382;6.768;2022-11-15T09:10:53;0.50;;;0.50;;
11986;SDS011;6053;51.382;6.768;2022-11-15T09:13:22;1.60;;;0.80;;
11986;SDS011;6053;51.382;6.768;2022-11-15T09:15:50;1.00;;;1.00;;
11986;SDS011;6053;51.382;6.768;2022-11-15T09:18:18;0.75;;;0.75;;
11986;SDS011;6053;51.382;6.768;2022-11-15T09:20:48;0.63;;;0.63;;
11986;SDS011;6053;51.382;6.768;2022-11-15T09:23:18;0.65;;;0.65;;
11986;SDS011;6053;51.382;6.768;2022-11-15T09:25:46;1.13;;;1.03;;
11986;SDS011;6053;51.382;6.768;2022-11-15T09:28:15;3.40;;;1.50;;
11986;SDS011;6053;51.382;6.768;2022-11-15T09:30:43;1.30;;;1.30;;
11986;SDS011;6053;51.382;6.768;2022-11-15T09:33:12;1.27;;;1.27;;
11986;SDS011;6053;51.382;6.768;2022-11-15T09:35:40;1.48;;;1.10;;
11986;SDS011;6053;51.382;6.768;2022-11-15T09:38:09;1.60;;;1.17;;
11986;SDS011;6053;51.382;6.768;2022-11-15T09:40:38;1.42;;;1.20;;
11986;SDS011;6053;51.382;6.768;2022-11-15T09:46:10;1.08;;;1.08;;
11986;SDS011;6053;51.382;6.768;2022-11-15T09:48:47;0.82;;;0.80;;
11986;SDS011;6053;51.382;6.768;2022-11-15T09:51:22;1.30;;;1.30;;
11986;SDS011;6053;51.382;6.768;2022-11-15T09:53:57;1.00;;;1.00;;
11986;SDS011;6053;51.382;6.768;2022-11-15T09:56:52;1.13;;;1.10;;
11986;SDS011;6053;51.382;6.768;2022-11-15T09:59:27;1.65;;;1.20;;
11986;SDS011;6053;51.382;6.768;2022-11-15T10:02:17;1.10;;;1.10;;
11986;SDS011;6053;51.382;6.768;2022-11-15T10:05:10;1.63;;;1.00;;
11986;SDS011;6053;51.382;6.768;2022-11-15T10:07:48;3.30;;;1.00;;
11986;SDS011;6053;51.382;6.768;2022-11-15T10:10:25;1.42;;;1.02;;
11986;SDS011;6053;51.382;6.768;2022-11-15T10:13:01;0.80;;;0.80;;
11986;SDS011;6053;51.382;6.768;2022-11-15T10:15:30;0.95;;;0.95;;
11986;SDS011;6053;51.382;6.768;2022-11-15T10:18:06;0.95;;;0.90;;
11986;SDS011;6053;51.382;6.768;2022-11-15T10:20:46;2.70;;;1.10;;
11986;SDS011;6053;51.382;6.768;2022-11-15T10:23:17;0.95;;;0.90;;
11986;SDS011;6053;51.382;6.768;2022-11-15T10:25:50;1.10;;;0.70;;
11986;SDS011;6053;51.382;6.768;2022-11-15T10:28:22;1.17;;;1.02;;
11986;SDS011;6053;51.382;6.768;2022-11-15T10:30:56;1.27;;;1.08;;
11986;SDS011;6053;51.382;6.768;2022-11-15T10:33:29;2.88;;;1.08;;
11986;SDS011;6053;51.382;6.768;2022-11-15T10:38:59;1.00;;;1.00;;
11986;SDS011;6053;51.382;6.768;2022-11-15T10:41:31;1.10;;;1.00;;
11986;SDS011;6053;51.382;6.768;2022-11-15T10:44:22;1.15;;;1.05;;
11986;SDS011;6053;51.382;6.768;2022-11-15T10:49:59;1.40;;;1.13;;
11986;SDS011;6053;51.382;6.768;2022-11-15T10:52:33;1.00;;;1.00;;
11986;SDS011;6053;51.382;6.768;2022-11-15T10:55:05;1.00;;;0.90;;
11986;SDS011;6053;51.382;6.768;2022-11-15T10:57:52;1.75;;;1.00;;
11986;SDS011;6053;51.382;6.768;2022-11-15T11:00:29;1.98;;;0.90;;
11986;SDS011;6053;51.382;6.768;2022-11-15T11:03:01;0.70;;;0.70;;
11986;SDS011;6053;51.382;6.768;2022-11-15T11:05:34;1.98;;;1.00;;
11986;SDS011;6053;51.382;6.768;2022-11-15T11:08:19;0.82;;;0.73;;
11986;SDS011;6053;51.382;6.768;2022-11-15T11:10:53;1.10;;;0.90;;
11986;SDS011;6053;51.382;6.768;2022-11-15T11:13:29;2.08;;;0.80;;
11986;SDS011;6053;51.382;6.768;2022-11-15T11:16:04;1.02;;;0.98;;
11986;SDS011;6053;51.382;6.768;2022-11-15T11:19:06;1.77;;;0.90;;
11986;SDS011;6053;51.382;6.768;2022-11-15T11:21:49;0.93;;;0.88;;
11986;SDS011;6053;51.382;6.768;2022-11-15T11:24:29;1.63;;;0.83;;
11986;SDS011;6053;51.382;6.768;2022-11-15T11:27:08;1.07;;;0.90;;
11986;SDS011;6053;51.382;6.768;2022-11-15T11:29:52;1.17;;;0.95;;
11986;SDS011;6053;51.382;6.768;2022-11-15T11:32:38;0.85;;;0.85;;
11986;SDS011;6053;51.382;6.768;2022-11-15T11:35:22;1.00;;;0.90;;
11986;SDS011;6053;51.382;6.768;2022-11-15T11:37:59;1.42;;;0.95;;
11986;SDS011;6053;51.382;6.768;2022-11-15T11:40:51;1.10;;;1.00;;
11986;SDS011;6053;51.382;6.768;2022-11-15T11:43:30;1.48;;;0.85;;
11986;SDS011;6053;51.382;6.768;2022-11-15T11:46:12;1.05;;;0.80;;
11986;SDS011;6053;51.382;6.768;2022-11-15T11:49:06;1.00;;;0.90;;
11986;SDS011;6053;51.382;6.768;2022-11-15T11:51:39;1.00;;;0.90;;
11986;SDS011;6053;51.382;6.768;2022-11-15T11:54:13;2.25;;;0.90;;
11986;SDS011;6053;51.382;6.768;2022-11-15T11:56:48;1.23;;;0.75;;
11986;SDS011;6053;51.382;6.768;2022-11-15T11:59:19;1.70;;;0.77;;
11986;SDS011;6053;51.382;6.768;2022-11-15T12:02:09;2.30;;;1.00;;
11986;SDS011;6053;51.382;6.768;2022-11-15T12:04:47;0.87;;;0.87;;
11986;SDS011;6053;51.382;6.768;2022-11-15T12:07:20;1.80;;;0.90;;
11986;SDS011;6053;51.382;6.768;2022-11-15T12:09:53;1.30;;;0.80;;
11986;SDS011;6053;51.382;6.768;2022-11-15T12:12:29;0.82;;;0.82;;
11986;SDS011;6053;51.382;6.768;2022-11-15T12:15:11;0.82;;;0.80;;
11986;SDS011;6053;51.382;6.768;2022-11-15T12:17:44;0.80;;;0.80;;
11986;SDS011;6053;51.382;6.768;2022-11-15T12:20:16;0.90;;;0.90;;
11986;SDS011;6053;51.382;6.768;2022-11-15T12:22:48;1.83;;;0.90;;
11986;SDS011;6053;51.382;6.768;2022-11-15T12:25:25;1.73;;;0.90;;
11986;SDS011;6053;51.382;6.768;2022-11-15T12:28:00;1.05;;;0.80;;
11986;SDS011;6053;51.382;6.768;2022-11-15T12:30:42;1.80;;;0.88;;
11986;SDS011;6053;51.382;6.768;2022-11-15T12:33:33;2.08;;;0.77;;
11986;SDS011;6053;51.382;6.768;2022-11-15T12:36:08;1.50;;;0.80;;
11986;SDS011;6053;51.382;6.768;2022-11-15T12:38:53;0.82;;;0.75;;
11986;SDS011;6053;51.382;6.768;2022-11-15T12:41:24;1.52;;;0.70;;
11986;SDS011;6053;51.382;6.768;2022-11-15T12:43:54;0.90;;;0.80;;
11986;SDS011;6053;51.382;6.768;2022-11-15T12:49:43;0.90;;;0.80;;
11986;SDS011;6053;51.382;6.768;2022-11-15T12:52:15;1.17;;;1.00;;
11986;SDS011;6053;51.382;6.768;2022-11-15T12:55:00;1.60;;;0.80;;
11986;SDS011;6053;51.382;6.768;2022-11-15T12:57:50;3.35;;;1.05;;
11986;SDS011;6053;51.382;6.768;2022-11-15T13:03:20;1.17;;;0.90;;
11986;SDS011;6053;51.382;6.768;2022-11-15T13:06:05;1.80;;;0.70;;
11986;SDS011;6053;51.382;6.768;2022-11-15T13:08:45;1.50;;;0.80;;
11986;SDS011;6053;51.382;6.768;2022-11-15T13:17:17;3.00;;;0.80;;
11986;SDS011;6053;51.382;6.768;2022-11-15T13:20:16;1.20;;;1.10;;
11986;SDS011;6053;51.382;6.768;2022-11-15T13:22:49;0.85;;;0.85;;
11986;SDS011;6053;51.382;6.768;2022-11-15T13:25:43;1.05;;;0.80;;
11986;SDS011;6053;51.382;6.768;2022-11-15T13:28:32;1.02;;;0.85;;
11986;SDS011;6053;51.382;6.768;2022-11-15T13:31:13;1.17;;;0.85;;
11986;SDS011;6053;51.382;6.768;2022-11-15T13:33:59;1.17;;;0.80;;
11986;SDS011;6053;51.382;6.768;2022-11-15T13:36:50;1.60;;;0.90;;
11986;SDS011;6053;51.382;6.768;2022-11-15T13:39:26;1.70;;;0.82;;
11986;SDS011;6053;51.382;6.768;2022-11-15T13:41:58;1.88;;;1.05;;
11986;SDS011;6053;51.382;6.768;2022-11-15T13:44:28;2.42;;;0.93;;
11986;SDS011;6053;51.382;6.768;2022-11-15T13:47:02;0.65;;;0.65;;
11986;SDS011;6053;51.382;6.768;2022-11-15T13:49:33;0.95;;;0.90;;
11986;SDS011;6053;51.382;6.768;2022-11-15T13:52:04;0.82;;;0.82;;
11986;SDS011;6053;51.382;6.768;2022-11-15T13:54:35;0.87;;;0.83;;
11986;SDS011;6053;51.382;6.768;2022-11-15T13:57:12;0.77;;;0.77;;
11986;SDS011;6053;51.382;6.768;2022-11-15T13:59:44;1.50;;;0.90;;
11986;SDS011;6053;51.382;6.768;2022-11-15T14:02:16;1.00;;;0.90;;
11986;SDS011;6053;51.382;6.768;2022-11-15T14:04:49;1.83;;;0.83;;
11986;SDS011;6053;51.382;6.768;2022-11-15T14:07:22;0.93;;;0.90;;
11986;SDS011;6053;51.382;6.768;2022-11-15T14:09:52;1.00;;;0.77;;
11986;SDS011;6053;51.382;6.768;2022-11-15T14:12:23;1.85;;;0.80;;
11986;SDS011;6053;51.382;6.768;2022-11-15T14:14:57;1.83;;;0.80;;
11986;SDS011;6053;51.382;6.768;2022-11-15T14:17:36;1.00;;;0.80;;
11986;SDS011;6053;51.382;6.768;2022-11-15T14:20:26;0.95;;;0.90;;
11986;SDS011;6053;51.382;6.768;2022-11-15T14:22:59;1.15;;;0.90;;
11986;SDS011;6053;51.382;6.768;2022-11-15T14:25:30;1.70;;;0.90;;
11986;SDS011;6053;51.382;6.768;2022-11-15T14:28:12;0.63;;;0.63;;
11986;SDS011;6053;51.382;6.768;2022-11-15T14:30:56;1.17;;;0.95;;
11986;SDS011;6053;51.382;6.768;2022-11-15T14:33:27;0.85;;;0.70;;
11986;SDS011;6053;51.382;6.768;2022-11-15T14:35:58;0.70;;;0.70;;
11986;SDS011;6053;51.382;6.768;2022-11-15T14:38:31;0.80;;;0.80;;
11986;SDS011;6053;51.382;6.768;2022-11-15T14:41:01;0.80;;;0.80;;
11986;SDS011;6053;51.382;6.768;2022-11-15T14:43:31;0.60;;;0.60;;
11986;SDS011;6053;51.382;6.768;2022-11-15T14:45:59;0.63;;;0.63;;
11986;SDS011;6053;51.382;6.768;2022-11-15T14:48:27;0.93;;;0.65;;
11986;SDS011;6053;51.382;6.768;2022-11-15T14:50:56;2.03;;;0.80;;
11986;SDS011;6053;51.382;6.768;2022-11-15T14:53:25;1.07;;;0.70;;
11986;SDS011;6053;51.382;6.768;2022-11-15T14:55:53;1.20;;;0.80;;
11986;SDS011;6053;51.382;6.768;2022-11-15T14:58:21;0.93;;;0.90;;
11986;SDS011;6053;51.382;6.768;2022-11-15T15:00:51;0.98;;;0.95;;
11986;SDS011;6053;51.382;6.768;2022-11-15T15:03:19;2.03;;;0.80;;
11986;SDS011;6053;51.382;6.768;2022-11-15T15:05:48;1.02;;;1.00;;
11986;SDS011;6053;51.382;6.768;2022-11-15T15:08:16;0.98;;;0.98;;
11986;SDS011;6053;51.382;6.768;2022-11-15T15:10:45;2.38;;;0.98;;
11986;SDS011;6053;51.382;6.768;2022-11-15T15:13:15;1.80;;;1.20;;
11986;SDS011;6053;51.382;6.768;2022-11-15T15:15:46;1.20;;;1.10;;
11986;SDS011;6053;51.382;6.768;2022-11-15T15:18:16;1.97;;;1.00;;
11986;SDS011;6053;51.382;6.768;2022-11-15T15:20:47;0.70;;;0.70;;
11986;SDS011;6053;51.382;6.768;2022-11-15T15:23:22;1.50;;;0.98;;
11986;SDS011;6053;51.382;6.768;2022-11-15T15:25:55;0.80;;;0.80;;
11986;SDS011;6053;51.382;6.768;2022-11-15T15:28:24;2.60;;;1.20;;
11986;SDS011;6053;51.382;6.768;2022-11-15T15:30:59;1.10;;;1.00;;
11986;SDS011;6053;51.382;6.768;2022-11-15T15:33:29;1.00;;;1.00;;
11986;SDS011;6053;51.382;6.768;2022-11-15T15:35:57;1.20;;;1.00;;
11986;SDS011;6053;51.382;6.768;2022-11-15T15:38:25;0.83;;;0.70;;
11986;SDS011;6053;51.382;6.768;2022-11-15T15:40:54;1.38;;;1.00;;
11986;SDS011;6053;51.382;6.768;2022-11-15T15:43:22;1.60;;;0.80;;
11986;SDS011;6053;51.382;6.768;2022-11-15T15:45:50;0.98;;;0.98;;
11986;SDS011;6053;51.382;6.768;2022-11-15T15:48:19;1.05;;;1.05;;
11986;SDS011;6053;51.382;6.768;2022-11-15T15:50:48;1.08;;;0.80;;
11986;SDS011;6053;51.382;6.768;2022-11-15T15:53:17;1.45;;;1.00;;
11986;SDS011;6053;51.382;6.768;2022-11-15T15:55:45;2.97;;;1.20;;
11986;SDS011;6053;51.382;6.768;2022-11-15T15:58:13;1.30;;;1.20;;